createdAt,value
2015-10-31T00:00:04.259Z,4.26
2015-10-31T00:00:16.587Z,4.22
2015-10-31T00:00:28.931Z,4.21
2015-10-31T00:00:41.262Z,4.21
2015-10-31T00:00:53.621Z,4.24
2015-10-31T00:01:05.950Z,4.2
2015-10-31T00:01:18.278Z,4.3
2015-10-31T00:01:30.621Z,4.18
2015-10-31T00:01:42.968Z,4.32
2015-10-31T00:01:55.328Z,4.22
2015-10-31T00:02:07.703Z,4.24
2015-10-31T00:02:20.078Z,4.29
2015-10-31T00:02:32.406Z,4.32
2015-10-31T00:02:44.737Z,4.35
2015-10-31T00:02:57.081Z,4.36
2015-10-31T00:03:09.440Z,4.22
2015-10-31T00:03:21.768Z,4.22
2015-10-31T00:03:34.096Z,4.32
2015-10-31T00:03:46.426Z,4.33
2015-10-31T00:03:58.754Z,4.29
2015-10-31T00:04:11.114Z,4.35
2015-10-31T00:04:23.458Z,4.26
2015-10-31T00:04:35.833Z,4.44
2015-10-31T00:04:48.179Z,4.38
2015-10-31T00:05:00.539Z,4.28
2015-10-31T00:05:12.851Z,4.32
2015-10-31T00:05:25.179Z,4.33
2015-10-31T00:05:37.539Z,4.39
2015-10-31T00:05:49.870Z,4.32
2015-10-31T00:06:02.214Z,4.28
2015-10-31T00:06:14.542Z,4.33
2015-10-31T00:06:26.870Z,4.38
2015-10-31T00:06:39.198Z,4.36
2015-10-31T00:06:51.559Z,4.29
2015-10-31T00:07:03.919Z,4.38
2015-10-31T00:07:16.262Z,4.29
2015-10-31T00:07:28.591Z,4.32
2015-10-31T00:07:40.919Z,4.29
2015-10-31T00:07:53.266Z,4.28
2015-10-31T00:08:05.595Z,4.35
2015-10-31T00:08:17.923Z,4.36
2015-10-31T00:08:30.282Z,4.33
2015-10-31T00:08:42.626Z,4.36
2015-10-31T00:08:54.972Z,4.39
2015-10-31T00:09:07.315Z,4.33
2015-10-31T00:09:19.659Z,4.36
2015-10-31T00:09:32.003Z,4.29
2015-10-31T00:09:44.315Z,4.46
2015-10-31T00:09:56.646Z,4.36
2015-10-31T00:10:08.990Z,4.39
2015-10-31T00:10:21.334Z,4.42
2015-10-31T00:10:33.678Z,4.38
2015-10-31T00:10:46.039Z,4.4
2015-10-31T00:10:58.398Z,4.39
2015-10-31T00:11:10.758Z,4.35
2015-10-31T00:11:23.070Z,4.33
2015-10-31T00:11:35.414Z,4.38
2015-10-31T00:11:47.746Z,4.32
2015-10-31T00:12:00.059Z,4.38
2015-10-31T00:12:12.387Z,4.33
2015-10-31T00:12:24.715Z,4.39
2015-10-31T00:12:37.059Z,4.38
2015-10-31T00:12:49.404Z,4.26
2015-10-31T00:13:01.748Z,4.35
2015-10-31T00:13:14.108Z,4.26
2015-10-31T00:13:26.467Z,4.3
2015-10-31T00:13:38.811Z,4.39
2015-10-31T00:13:51.142Z,4.29
2015-10-31T00:14:03.486Z,4.3
2015-10-31T00:14:15.798Z,4.4
2015-10-31T00:14:28.142Z,4.36
2015-10-31T00:14:40.486Z,4.36
2015-10-31T00:14:52.816Z,4.28
2015-10-31T00:15:05.175Z,4.35
2015-10-31T00:15:17.519Z,4.3
2015-10-31T00:15:29.863Z,4.28
2015-10-31T00:15:42.222Z,4.29
2015-10-31T00:15:54.600Z,4.3
2015-10-31T00:16:06.928Z,4.32
2015-10-31T00:16:19.256Z,4.26
2015-10-31T00:16:31.584Z,4.29
2015-10-31T00:16:43.912Z,4.28
2015-10-31T00:16:56.244Z,4.26
2015-10-31T00:17:08.572Z,4.18
2015-10-31T00:17:20.915Z,4.2
2015-10-31T00:17:33.259Z,4.28
2015-10-31T00:17:45.587Z,4.32
2015-10-31T00:17:57.950Z,4.18
2015-10-31T00:18:10.278Z,4.28
2015-10-31T00:18:22.637Z,4.21
2015-10-31T00:18:34.965Z,4.28
2015-10-31T00:18:47.280Z,4.21
2015-10-31T00:18:59.592Z,4.2
2015-10-31T00:19:11.920Z,4.26
2015-10-31T00:19:24.264Z,4.24
2015-10-31T00:19:36.608Z,4.29
2015-10-31T00:19:48.954Z,4.24
2015-10-31T00:20:01.329Z,4.26
2015-10-31T00:20:13.719Z,4.2
2015-10-31T00:20:26.063Z,4.18
2015-10-31T00:20:38.391Z,4.22
2015-10-31T00:20:50.723Z,4.26
2015-10-31T00:21:03.051Z,4.17
2015-10-31T00:21:15.380Z,4.22
2015-10-31T00:21:27.723Z,4.24
2015-10-31T00:21:40.051Z,4.12
2015-10-31T00:21:52.397Z,4.22
2015-10-31T00:22:04.741Z,4.18
2015-10-31T00:22:17.100Z,4.18
2015-10-31T00:22:29.460Z,4.18
2015-10-31T00:22:41.850Z,4.22
2015-10-31T00:22:54.181Z,4.21
2015-10-31T00:23:06.510Z,4.22
2015-10-31T00:23:18.838Z,4.17
2015-10-31T00:23:31.150Z,4.24
2015-10-31T00:23:43.478Z,4.2
2015-10-31T00:23:55.809Z,4.22
2015-10-31T00:24:08.138Z,4.21
2015-10-31T00:24:20.497Z,4.18
2015-10-31T00:24:32.841Z,4.18
2015-10-31T00:24:45.200Z,4.32
2015-10-31T00:24:57.561Z,4.29
2015-10-31T00:25:09.936Z,4.26
2015-10-31T00:25:22.265Z,4.18
2015-10-31T00:25:34.577Z,4.21
2015-10-31T00:25:46.908Z,4.29
2015-10-31T00:25:59.236Z,4.21
2015-10-31T00:26:11.580Z,4.22
2015-10-31T00:26:23.908Z,4.2
2015-10-31T00:26:36.252Z,4.29
2015-10-31T00:26:48.598Z,4.38
2015-10-31T00:27:00.973Z,4.33
2015-10-31T00:27:13.348Z,4.33
2015-10-31T00:27:25.676Z,4.24
2015-10-31T00:27:38.004Z,4.38
2015-10-31T00:27:50.351Z,4.4
2015-10-31T00:28:02.663Z,4.35
2015-10-31T00:28:15.007Z,4.36
2015-10-31T00:28:27.335Z,4.36
2015-10-31T00:28:39.663Z,4.39
2015-10-31T00:28:52.010Z,4.32
2015-10-31T00:29:04.354Z,4.33
2015-10-31T00:29:16.713Z,4.4
2015-10-31T00:29:29.072Z,4.36
2015-10-31T00:29:41.416Z,4.38
2015-10-31T00:29:53.794Z,4.4
2015-10-31T00:30:06.122Z,4.4
2015-10-31T00:30:18.466Z,4.38
2015-10-31T00:30:30.638Z,4.38
2015-10-31T00:30:42.966Z,4.4
2015-10-31T00:30:55.296Z,4.36
2015-10-31T00:31:07.640Z,4.38
2015-10-31T00:31:19.999Z,4.39
2015-10-31T00:31:32.171Z,4.38
2015-10-31T00:31:44.499Z,4.4
2015-10-31T00:31:56.830Z,4.44
2015-10-31T00:32:09.159Z,4.36
2015-10-31T00:32:21.487Z,4.3
2015-10-31T00:32:33.830Z,4.44
2015-10-31T00:32:46.159Z,4.4
2015-10-31T00:32:57.801Z,4.44
2015-10-31T00:33:10.176Z,4.4
2015-10-31T00:33:22.520Z,4.48
2015-10-31T00:33:34.864Z,4.48
2015-10-31T00:33:47.196Z,4.5
2015-10-31T00:33:59.540Z,4.48
2015-10-31T00:34:11.165Z,4.57
2015-10-31T00:34:23.508Z,4.48
2015-10-31T00:34:35.852Z,4.53
2015-10-31T00:34:48.182Z,4.53
2015-10-31T00:35:00.526Z,4.56
2015-10-31T00:35:12.885Z,4.51
2015-10-31T00:35:25.229Z,4.51
2015-10-31T00:35:37.588Z,4.54
2015-10-31T00:35:49.965Z,4.57
2015-10-31T00:36:02.294Z,4.56
2015-10-31T00:36:14.481Z,4.61
2015-10-31T00:36:26.825Z,4.58
2015-10-31T00:36:38.981Z,4.58
2015-10-31T00:36:51.313Z,4.64
2015-10-31T00:37:03.657Z,4.53
2015-10-31T00:37:15.985Z,4.65
2015-10-31T00:37:28.329Z,4.65
2015-10-31T00:37:39.954Z,4.58
2015-10-31T00:37:52.331Z,4.64
2015-10-31T00:38:04.690Z,4.69
2015-10-31T00:38:17.018Z,4.57
2015-10-31T00:38:29.346Z,4.66
2015-10-31T00:38:41.675Z,4.6
2015-10-31T00:38:53.990Z,4.68
2015-10-31T00:39:06.334Z,4.58
2015-10-31T00:39:18.662Z,4.71
2015-10-31T00:39:31.006Z,4.69
2015-10-31T00:39:43.349Z,4.75
2015-10-31T00:39:55.681Z,4.71
2015-10-31T00:40:08.040Z,4.69
2015-10-31T00:40:20.399Z,4.61
2015-10-31T00:40:32.759Z,4.69
2015-10-31T00:40:59.277Z,4.74
2015-10-31T00:41:11.605Z,4.66
2015-10-31T00:41:23.934Z,4.65
2015-10-31T00:41:36.262Z,4.75
2015-10-31T00:41:48.592Z,4.6
2015-10-31T00:42:00.936Z,4.69
2015-10-31T00:42:13.279Z,4.69
2015-10-31T00:42:25.623Z,4.58
2015-10-31T00:42:37.967Z,4.69
2015-10-31T00:42:50.314Z,4.68
2015-10-31T00:43:02.689Z,4.64
2015-10-31T00:43:15.017Z,4.71
2015-10-31T00:43:27.345Z,4.71
2015-10-31T00:43:39.673Z,4.61
2015-10-31T00:43:52.003Z,4.53
2015-10-31T00:44:04.347Z,4.6
2015-10-31T00:44:16.675Z,4.64
2015-10-31T00:44:29.003Z,4.6
2015-10-31T00:44:41.347Z,4.6
2015-10-31T00:44:53.694Z,4.57
2015-10-31T00:45:06.053Z,4.65
2015-10-31T00:45:18.428Z,4.64
2015-10-31T00:45:30.772Z,4.61
2015-10-31T00:45:43.084Z,4.69
2015-10-31T00:45:55.431Z,4.68
2015-10-31T00:46:07.775Z,4.65
2015-10-31T00:46:20.103Z,4.72
2015-10-31T00:46:32.431Z,4.66
2015-10-31T00:46:44.743Z,4.65
2015-10-31T00:46:57.106Z,4.87
2015-10-31T00:47:09.434Z,4.75
2015-10-31T00:47:21.793Z,4.79
2015-10-31T00:47:34.153Z,4.84
2015-10-31T00:47:46.543Z,4.92
2015-10-31T00:47:58.873Z,4.92
2015-10-31T00:48:11.202Z,4.87
2015-10-31T00:48:23.530Z,4.91
2015-10-31T00:48:35.139Z,4.85
2015-10-31T00:48:47.486Z,4.97
2015-10-31T00:48:59.814Z,4.92
2015-10-31T00:49:12.142Z,4.95
2015-10-31T00:49:24.486Z,5.02
2015-10-31T00:49:36.126Z,4.92
2015-10-31T00:49:48.489Z,4.97
2015-10-31T00:50:00.864Z,5.05
2015-10-31T00:50:13.208Z,5.02
2015-10-31T00:50:25.536Z,5.09
2015-10-31T00:50:37.879Z,5
2015-10-31T00:50:50.194Z,5.06
2015-10-31T00:51:02.538Z,4.95
2015-10-31T00:51:14.866Z,5.03
2015-10-31T00:51:27.194Z,4.95
2015-10-31T00:51:39.522Z,5.05
2015-10-31T00:51:51.869Z,5.06
2015-10-31T00:52:04.213Z,4.97
2015-10-31T00:52:16.556Z,5.03
2015-10-31T00:52:28.931Z,4.95
2015-10-31T00:52:41.291Z,5
2015-10-31T00:52:53.622Z,5.02
2015-10-31T00:53:05.950Z,4.98
2015-10-31T00:53:18.278Z,5.02
2015-10-31T00:53:30.606Z,5.06
2015-10-31T00:53:42.934Z,4.97
2015-10-31T00:53:55.265Z,5
2015-10-31T00:54:07.609Z,4.94
2015-10-31T00:54:19.953Z,4.98
2015-10-31T00:54:32.281Z,4.92
2015-10-31T00:54:44.640Z,4.98
2015-10-31T00:54:56.986Z,4.98
2015-10-31T00:55:09.330Z,4.91
2015-10-31T00:55:20.939Z,4.97
2015-10-31T00:55:33.267Z,4.97
2015-10-31T00:55:45.596Z,4.92
2015-10-31T00:55:57.208Z,4.85
2015-10-31T00:56:09.536Z,4.91
2015-10-31T00:56:21.864Z,4.92
2015-10-31T00:56:34.192Z,4.85
2015-10-31T00:56:46.536Z,4.87
2015-10-31T00:56:58.882Z,4.9
2015-10-31T00:57:11.241Z,4.88
2015-10-31T00:57:23.616Z,4.75
2015-10-31T00:57:35.819Z,4.75
2015-10-31T00:57:48.163Z,4.83
2015-10-31T00:58:00.510Z,4.83
2015-10-31T00:58:12.838Z,4.79
2015-10-31T00:58:25.166Z,4.75
2015-10-31T00:58:37.494Z,4.76
2015-10-31T00:58:49.838Z,4.68
2015-10-31T00:59:02.201Z,4.72
2015-10-31T00:59:14.545Z,4.58
2015-10-31T00:59:26.889Z,4.68
2015-10-31T00:59:39.248Z,4.64
2015-10-31T00:59:51.608Z,4.66
2015-10-31T01:00:03.969Z,4.61
2015-10-31T01:00:16.313Z,4.58
2015-10-31T01:00:28.641Z,4.65
2015-10-31T01:00:40.969Z,4.57
2015-10-31T01:00:53.297Z,4.65
2015-10-31T01:01:05.627Z,4.53
2015-10-31T01:01:17.955Z,4.56
2015-10-31T01:01:30.283Z,4.51
2015-10-31T01:01:42.612Z,4.51
2015-10-31T01:01:54.940Z,4.48
2015-10-31T01:02:07.302Z,4.47
2015-10-31T01:02:19.661Z,4.5
2015-10-31T01:02:32.005Z,4.48
2015-10-31T01:02:44.365Z,4.42
2015-10-31T01:02:56.708Z,4.4
2015-10-31T01:03:09.039Z,4.36
2015-10-31T01:03:20.664Z,4.42
2015-10-31T01:03:32.993Z,4.32
2015-10-31T01:03:45.321Z,4.35
2015-10-31T01:03:57.664Z,4.28
2015-10-31T01:04:09.996Z,4.3
2015-10-31T01:04:22.339Z,4.28
2015-10-31T01:04:34.683Z,4.3
2015-10-31T01:04:46.324Z,4.18
2015-10-31T01:04:58.699Z,4.35
2015-10-31T01:05:11.030Z,4.24
2015-10-31T01:05:23.358Z,4.2
2015-10-31T01:05:35.749Z,4.28
2015-10-31T01:05:48.077Z,4.21
2015-10-31T01:06:00.420Z,4.15
2015-10-31T01:06:12.766Z,4.2
2015-10-31T01:06:25.126Z,4.15
2015-10-31T01:06:37.485Z,4.26
2015-10-31T01:06:49.844Z,4.14
2015-10-31T01:07:02.172Z,4.14
2015-10-31T01:07:14.504Z,4
2015-10-31T01:07:26.832Z,4.08
2015-10-31T01:07:39.160Z,4.14
2015-10-31T01:07:51.472Z,4.1
2015-10-31T01:08:03.800Z,4.04
2015-10-31T01:08:16.147Z,4.04
2015-10-31T01:08:28.491Z,3.97
2015-10-31T01:08:40.116Z,3.94
2015-10-31T01:08:52.475Z,3.99
2015-10-31T01:09:04.835Z,3.96
2015-10-31T01:09:17.228Z,3.97
2015-10-31T01:09:29.556Z,4
2015-10-31T01:09:41.869Z,3.93
2015-10-31T01:09:54.197Z,3.9
2015-10-31T01:10:06.541Z,3.93
2015-10-31T01:10:18.871Z,3.93
2015-10-31T01:10:31.199Z,3.9
2015-10-31T01:10:43.527Z,3.92
2015-10-31T01:10:55.887Z,3.9
2015-10-31T01:11:08.230Z,3.93
2015-10-31T01:11:20.608Z,3.9
2015-10-31T01:11:32.968Z,3.92
2015-10-31T01:11:45.327Z,3.89
2015-10-31T01:11:57.655Z,3.9
2015-10-31T01:12:09.986Z,3.85
2015-10-31T01:12:22.330Z,3.84
2015-10-31T01:12:33.783Z,3.86
2015-10-31T01:12:46.111Z,3.84
2015-10-31T01:12:58.455Z,3.85
2015-10-31T01:13:10.801Z,3.85
2015-10-31T01:13:23.160Z,3.86
2015-10-31T01:13:35.504Z,3.79
2015-10-31T01:13:47.832Z,3.86
2015-10-31T01:14:00.160Z,3.85
2015-10-31T01:14:12.491Z,3.82
2015-10-31T01:14:24.819Z,3.82
2015-10-31T01:14:37.148Z,3.82
2015-10-31T01:14:49.476Z,3.81
2015-10-31T01:15:01.819Z,3.79
2015-10-31T01:15:14.010Z,3.78
2015-10-31T01:15:25.651Z,3.76
2015-10-31T01:15:38.010Z,3.86
2015-10-31T01:15:50.401Z,3.84
2015-10-31T01:16:02.776Z,3.81
2015-10-31T01:16:15.106Z,3.85
2015-10-31T01:16:27.434Z,3.81
2015-10-31T01:16:39.778Z,3.75
2015-10-31T01:16:52.106Z,3.85
2015-10-31T01:17:04.449Z,3.92
2015-10-31T01:17:16.796Z,3.75
2015-10-31T01:17:29.124Z,3.86
2015-10-31T01:17:41.484Z,3.71
2015-10-31T01:17:53.812Z,3.76
2015-10-31T01:18:06.171Z,3.76
2015-10-31T01:18:18.534Z,3.76
2015-10-31T01:18:30.893Z,3.72
2015-10-31T01:18:43.252Z,3.74
2015-10-31T01:18:55.580Z,3.76
2015-10-31T01:19:07.924Z,3.74
2015-10-31T01:19:20.270Z,3.72
2015-10-31T01:19:32.598Z,3.69
2015-10-31T01:19:44.942Z,3.69
2015-10-31T01:19:57.254Z,3.72
2015-10-31T01:20:09.598Z,3.69
2015-10-31T01:20:21.946Z,3.72
2015-10-31T01:20:34.305Z,3.61
2015-10-31T01:20:46.665Z,3.71
2015-10-31T01:20:58.993Z,3.63
2015-10-31T01:21:11.336Z,3.58
2015-10-31T01:21:23.667Z,3.63
2015-10-31T01:21:35.979Z,3.63
2015-10-31T01:21:48.307Z,3.67
2015-10-31T01:22:00.651Z,3.66
2015-10-31T01:22:12.979Z,3.67
2015-10-31T01:22:25.326Z,3.64
2015-10-31T01:22:37.670Z,3.63
2015-10-31T01:22:50.045Z,3.53
2015-10-31T01:23:21.482Z,3.63
2015-10-31T01:23:33.813Z,3.56
2015-10-31T01:23:46.141Z,3.57
2015-10-31T01:23:58.469Z,3.61
2015-10-31T01:24:10.798Z,3.58
2015-10-31T01:24:23.141Z,3.49
2015-10-31T01:24:35.488Z,3.57
2015-10-31T01:24:47.847Z,3.54
2015-10-31T01:25:00.222Z,3.49
2015-10-31T01:25:12.582Z,3.57
2015-10-31T01:25:24.910Z,3.51
2015-10-31T01:25:37.241Z,3.43
2015-10-31T01:25:49.569Z,3.49
2015-10-31T01:26:01.897Z,3.42
2015-10-31T01:26:14.225Z,3.43
2015-10-31T01:26:26.554Z,3.51
2015-10-31T01:26:38.884Z,3.49
2015-10-31T01:26:51.227Z,3.48
2015-10-31T01:27:03.571Z,3.53
2015-10-31T01:27:15.931Z,3.51
2015-10-31T01:27:28.321Z,3.51
2015-10-31T01:27:40.652Z,3.49
2015-10-31T01:27:52.980Z,3.48
2015-10-31T01:28:05.324Z,3.45
2015-10-31T01:28:17.652Z,3.46
2015-10-31T01:28:29.965Z,3.45
2015-10-31T01:28:42.312Z,3.39
2015-10-31T01:28:54.655Z,3.37
2015-10-31T01:29:07.015Z,3.37
2015-10-31T01:29:19.343Z,3.4
2015-10-31T01:29:31.655Z,3.42
2015-10-31T01:29:43.815Z,3.46
2015-10-31T01:29:56.174Z,3.34
2015-10-31T01:30:08.502Z,3.46
2015-10-31T01:30:20.846Z,3.27
2015-10-31T01:30:33.174Z,3.3
2015-10-31T01:30:45.504Z,3.27
2015-10-31T01:30:57.848Z,3.27
2015-10-31T01:31:10.192Z,3.37
2015-10-31T01:31:22.551Z,3.49
2015-10-31T01:31:34.882Z,3.43
2015-10-31T01:31:47.210Z,3.43
2015-10-31T01:31:59.538Z,3.43
2015-10-31T01:32:11.866Z,3.46
2015-10-31T01:32:23.507Z,3.45
2015-10-31T01:32:35.838Z,3.32
2015-10-31T01:32:48.182Z,3.43
2015-10-31T01:33:00.557Z,3.37
2015-10-31T01:33:12.885Z,3.42
2015-10-31T01:33:25.213Z,3.37
2015-10-31T01:33:37.543Z,3.42
2015-10-31T01:33:49.871Z,3.43
2015-10-31T01:34:02.200Z,3.43
2015-10-31T01:34:14.512Z,3.49
2015-10-31T01:34:26.840Z,3.45
2015-10-31T01:34:39.187Z,3.51
2015-10-31T01:34:51.531Z,3.51
2015-10-31T01:35:03.859Z,3.49
2015-10-31T01:35:15.499Z,3.46
2015-10-31T01:35:27.859Z,3.61
2015-10-31T01:35:40.205Z,3.56
2015-10-31T01:35:52.533Z,3.63
2015-10-31T01:36:04.845Z,3.64
2015-10-31T01:36:17.173Z,3.63
2015-10-31T01:36:29.501Z,3.53
2015-10-31T01:36:41.818Z,3.61
2015-10-31T01:36:54.146Z,3.71
2015-10-31T01:37:06.474Z,3.67
2015-10-31T01:37:18.818Z,3.64
2015-10-31T01:37:31.146Z,3.72
2015-10-31T01:37:43.351Z,3.69
2015-10-31T01:37:55.711Z,3.66
2015-10-31T01:38:08.070Z,3.74
2015-10-31T01:38:19.679Z,3.74
2015-10-31T01:38:32.007Z,3.79
2015-10-31T01:38:44.323Z,3.78
2015-10-31T01:38:56.651Z,3.9
2015-10-31T01:39:08.964Z,3.76
2015-10-31T01:39:21.307Z,3.86
2015-10-31T01:39:33.635Z,3.92
2015-10-31T01:39:45.998Z,3.93
2015-10-31T01:39:58.342Z,3.93
2015-10-31T01:40:10.670Z,3.93
2015-10-31T01:40:23.013Z,3.93
2015-10-31T01:40:35.342Z,3.93
2015-10-31T01:40:47.672Z,4.07
2015-10-31T01:41:00.000Z,4.03
2015-10-31T01:41:12.344Z,4
2015-10-31T01:41:24.672Z,4
2015-10-31T01:41:37.000Z,4.02
2015-10-31T01:41:49.331Z,4.1
2015-10-31T01:42:01.675Z,4.12
2015-10-31T01:42:14.018Z,4.1
2015-10-31T01:42:26.393Z,4.12
2015-10-31T01:42:38.768Z,4.1
2015-10-31T01:42:51.100Z,4.12
2015-10-31T01:43:03.428Z,4.15
2015-10-31T01:43:15.740Z,4.14
2015-10-31T01:43:28.053Z,4.18
2015-10-31T01:43:40.381Z,4.1
2015-10-31T01:43:52.727Z,4.15
2015-10-31T01:44:04.367Z,4.18
2015-10-31T01:44:16.695Z,4.22
2015-10-31T01:44:29.039Z,4.2
2015-10-31T01:44:41.102Z,4.21
2015-10-31T01:44:53.448Z,4.15
2015-10-31T01:45:05.808Z,4.18
2015-10-31T01:45:18.120Z,4.14
2015-10-31T01:45:30.448Z,4.18
2015-10-31T01:45:42.795Z,4.04
2015-10-31T01:45:55.123Z,4.03
2015-10-31T01:46:07.467Z,4.1
2015-10-31T01:46:19.795Z,4.03
2015-10-31T01:46:32.108Z,4.1
2015-10-31T01:46:44.470Z,4.03
2015-10-31T01:46:56.798Z,4.17
2015-10-31T01:47:09.157Z,4.1
2015-10-31T01:47:21.517Z,4.14
2015-10-31T01:47:33.876Z,4.04
2015-10-31T01:47:46.239Z,4.02
2015-10-31T01:47:58.567Z,4.15
2015-10-31T01:48:10.879Z,4.04
2015-10-31T01:48:23.207Z,4.04
2015-10-31T01:48:35.551Z,4.1
2015-10-31T01:48:47.897Z,4.08
2015-10-31T01:49:00.225Z,4.08
2015-10-31T01:49:12.569Z,3.99
2015-10-31T01:49:24.912Z,4.07
2015-10-31T01:49:37.241Z,4.04
2015-10-31T01:49:49.618Z,4.1
2015-10-31T01:50:01.977Z,4.04
2015-10-31T01:50:14.321Z,3.99
2015-10-31T01:50:26.649Z,4.1
2015-10-31T01:50:38.961Z,3.99
2015-10-31T01:50:51.356Z,4
2015-10-31T01:51:03.684Z,4.1
2015-10-31T01:51:16.012Z,4.24
2015-10-31T01:51:28.356Z,4.22
2015-10-31T01:51:40.715Z,4.11
2015-10-31T01:51:53.045Z,4.21
2015-10-31T01:52:05.374Z,4.26
2015-10-31T01:52:17.702Z,4.22
2015-10-31T01:52:29.327Z,4.22
2015-10-31T01:52:41.670Z,4.21
2015-10-31T01:52:54.017Z,4.32
2015-10-31T01:53:06.252Z,4.36
2015-10-31T01:53:18.611Z,4.22
2015-10-31T01:53:30.939Z,4.32
2015-10-31T01:53:43.270Z,4.18
2015-10-31T01:53:55.598Z,4.26
2015-10-31T01:54:07.926Z,4.26
2015-10-31T01:54:20.255Z,4.32
2015-10-31T01:54:31.864Z,4.33
2015-10-31T01:54:44.194Z,4.22
2015-10-31T01:54:56.538Z,4.33
2015-10-31T01:55:08.882Z,4.24
2015-10-31T01:55:21.241Z,4.22
2015-10-31T01:55:33.600Z,4.28
2015-10-31T01:55:45.977Z,4.3
2015-10-31T01:55:58.305Z,4.22
2015-10-31T01:56:10.634Z,4.28
2015-10-31T01:56:22.977Z,4.22
2015-10-31T01:56:35.305Z,4.18
2015-10-31T01:56:47.637Z,4.21
2015-10-31T01:56:59.980Z,4.2
2015-10-31T01:57:12.308Z,4.22
2015-10-31T01:57:24.652Z,4.18
2015-10-31T01:57:36.996Z,4.22
2015-10-31T01:57:49.358Z,4.18
2015-10-31T01:58:01.718Z,4.24
2015-10-31T01:58:14.077Z,4.2
2015-10-31T01:58:26.405Z,4.28
2015-10-31T01:58:38.733Z,4.2
2015-10-31T01:58:51.064Z,4.2
2015-10-31T01:59:03.393Z,4.18
2015-10-31T01:59:15.721Z,4.26
2015-10-31T01:59:28.049Z,4.21
2015-10-31T01:59:40.377Z,4.29
2015-10-31T01:59:52.724Z,4.2
2015-10-31T02:00:05.052Z,4.2
2015-10-31T02:00:17.411Z,4.15
2015-10-31T02:00:29.771Z,4.17
2015-10-31T02:00:42.099Z,4.17
2015-10-31T02:00:54.444Z,4.18
2015-10-31T02:01:06.054Z,4.14
2015-10-31T02:01:18.398Z,4.08
2015-10-31T02:01:30.741Z,4.08
2015-10-31T02:01:43.087Z,4
2015-10-31T02:01:55.446Z,4.12
2015-10-31T02:02:07.806Z,4.14
2015-10-31T02:02:20.165Z,4.14
2015-10-31T02:02:32.525Z,4.03
2015-10-31T02:02:44.856Z,4.11
2015-10-31T02:02:57.168Z,4.14
2015-10-31T02:03:09.496Z,4.02
2015-10-31T02:03:21.824Z,4.14
2015-10-31T02:03:34.153Z,4.15
2015-10-31T02:03:46.468Z,4.17
2015-10-31T02:03:58.812Z,4.02
2015-10-31T02:04:11.140Z,4.14
2015-10-31T02:04:23.484Z,4.17
2015-10-31T02:04:35.843Z,4.21
2015-10-31T02:04:48.173Z,4.2
2015-10-31T02:05:00.501Z,4.18
2015-10-31T02:05:12.814Z,4.11
2015-10-31T02:05:25.142Z,4.12
2015-10-31T02:05:37.454Z,4.03
2015-10-31T02:05:49.770Z,4.1
2015-10-31T02:06:02.114Z,4.04
2015-10-31T02:06:14.442Z,4
2015-10-31T02:06:26.786Z,4.12
2015-10-31T02:06:39.145Z,4.02
2015-10-31T02:06:51.476Z,4.02
2015-10-31T02:07:03.101Z,4.03
2015-10-31T02:07:15.429Z,4
2015-10-31T02:07:27.054Z,4.02
2015-10-31T02:07:39.382Z,3.94
2015-10-31T02:07:51.729Z,3.92
2015-10-31T02:08:04.073Z,3.93
2015-10-31T02:08:16.432Z,3.9
2015-10-31T02:08:28.745Z,3.96
2015-10-31T02:08:41.073Z,3.9
2015-10-31T02:08:53.420Z,3.99
2015-10-31T02:09:05.748Z,3.94
2015-10-31T02:09:18.076Z,3.94
2015-10-31T02:09:30.420Z,3.94
2015-10-31T02:09:42.763Z,3.96
2015-10-31T02:09:55.141Z,4
2015-10-31T02:10:07.501Z,4.03
2015-10-31T02:10:19.876Z,4.03
2015-10-31T02:10:32.188Z,4.12
2015-10-31T02:10:44.534Z,4
2015-10-31T02:10:56.862Z,4.11
2015-10-31T02:11:09.190Z,4.08
2015-10-31T02:11:21.518Z,4.14
2015-10-31T02:11:33.862Z,4.21
2015-10-31T02:11:46.208Z,4.11
2015-10-31T02:11:58.567Z,4.21
2015-10-31T02:12:10.911Z,4.15
2015-10-31T02:12:23.239Z,4.22
2015-10-31T02:12:35.567Z,4.21
2015-10-31T02:12:47.195Z,4.18
2015-10-31T02:12:59.508Z,4.2
2015-10-31T02:13:11.836Z,4.2
2015-10-31T02:13:24.008Z,4.17
2015-10-31T02:13:36.336Z,4.18
2015-10-31T02:13:48.683Z,4.21
2015-10-31T02:14:01.026Z,4.1
2015-10-31T02:14:13.401Z,4.14
2015-10-31T02:14:25.620Z,4.2
2015-10-31T02:14:37.964Z,4.15
2015-10-31T02:14:50.295Z,4.21
2015-10-31T02:15:02.639Z,4.1
2015-10-31T02:15:14.967Z,4.12
2015-10-31T02:15:27.279Z,4.12
2015-10-31T02:15:39.623Z,4.2
2015-10-31T02:15:51.938Z,4.21
2015-10-31T02:16:04.281Z,4.08
2015-10-31T02:16:16.625Z,4.14
2015-10-31T02:16:28.984Z,4.12
2015-10-31T02:16:41.328Z,4.14
2015-10-31T02:16:53.652Z,4.03
2015-10-31T02:17:05.980Z,4.14
2015-10-31T02:17:18.309Z,4.04
2015-10-31T02:17:30.637Z,4.17
2015-10-31T02:17:42.965Z,4.08
2015-10-31T02:17:55.287Z,4.1
2015-10-31T02:18:07.615Z,4.02
2015-10-31T02:18:19.959Z,4.17
2015-10-31T02:18:32.303Z,4.1
2015-10-31T02:18:44.656Z,4.04
2015-10-31T02:18:57.015Z,4.04
2015-10-31T02:19:09.375Z,4.02
2015-10-31T02:19:21.703Z,4
2015-10-31T02:19:34.031Z,4.02
2015-10-31T02:19:46.369Z,4.1
2015-10-31T02:19:58.681Z,3.99
2015-10-31T02:20:11.009Z,3.96
2015-10-31T02:20:23.337Z,3.94
2015-10-31T02:20:35.666Z,3.9
2015-10-31T02:20:47.988Z,3.97
2015-10-31T02:21:00.331Z,3.89
2015-10-31T02:21:12.660Z,3.94
2015-10-31T02:21:25.019Z,3.96
2015-10-31T02:21:37.363Z,3.99
2015-10-31T02:21:49.688Z,4.02
2015-10-31T02:22:02.016Z,3.99
2015-10-31T02:22:14.360Z,4.1
2015-10-31T02:22:26.672Z,4
2015-10-31T02:22:39.016Z,4.07
2015-10-31T02:22:51.360Z,4.08
2015-10-31T02:23:03.703Z,4.08
2015-10-31T02:23:16.047Z,4.07
2015-10-31T02:23:28.391Z,4.08
2015-10-31T02:23:40.735Z,4.12
2015-10-31T02:23:53.046Z,4.07
2015-10-31T02:24:05.374Z,4.08
2015-10-31T02:24:17.702Z,4.24
2015-10-31T02:24:30.031Z,4.11
2015-10-31T02:24:42.359Z,4.12
2015-10-31T02:24:54.701Z,4.21
2015-10-31T02:25:07.061Z,4.26
2015-10-31T02:25:19.420Z,4.28
2015-10-31T02:25:31.780Z,4.22
2015-10-31T02:25:44.155Z,4.26
2015-10-31T02:25:56.514Z,4.26
2015-10-31T02:26:08.858Z,4.21
2015-10-31T02:26:21.186Z,4.29
2015-10-31T02:26:33.514Z,4.18
2015-10-31T02:26:45.842Z,4.3
2015-10-31T02:26:58.170Z,4.21
2015-10-31T02:27:10.514Z,4.29
2015-10-31T02:27:22.842Z,4.35
2015-10-31T02:27:35.186Z,4.29
2015-10-31T02:27:47.532Z,4.33
2015-10-31T02:27:59.891Z,4.22
2015-10-31T02:28:12.250Z,4.26
2015-10-31T02:28:24.625Z,4.39
2015-10-31T02:28:37.000Z,4.24
2015-10-31T02:28:49.330Z,4.32
2015-10-31T02:29:01.659Z,4.26
2015-10-31T02:29:13.987Z,4.33
2015-10-31T02:29:26.330Z,4.36
2015-10-31T02:29:38.674Z,4.29
2015-10-31T02:29:51.003Z,4.35
2015-10-31T02:30:03.331Z,4.26
2015-10-31T02:30:15.675Z,4.36
2015-10-31T02:30:28.019Z,4.26
2015-10-31T02:30:40.394Z,4.35
2015-10-31T02:30:52.740Z,4.39
2015-10-31T02:31:05.068Z,4.36
2015-10-31T02:31:17.396Z,4.42
2015-10-31T02:31:29.740Z,4.3
2015-10-31T02:31:42.052Z,4.36
2015-10-31T02:31:54.398Z,4.44
2015-10-31T02:32:06.726Z,4.4
2015-10-31T02:32:19.070Z,4.38
2015-10-31T02:32:31.414Z,4.42
2015-10-31T02:32:43.792Z,4.4
2015-10-31T02:32:56.151Z,4.46
2015-10-31T02:33:08.526Z,4.42
2015-10-31T02:33:20.745Z,4.48
2015-10-31T02:33:33.057Z,4.46
2015-10-31T02:33:45.387Z,4.5
2015-10-31T02:33:57.715Z,4.5
2015-10-31T02:34:10.044Z,4.48
2015-10-31T02:34:22.372Z,4.54
2015-10-31T02:34:34.700Z,4.5
2015-10-31T02:34:47.030Z,4.53
2015-10-31T02:34:59.389Z,4.54
2015-10-31T02:35:11.733Z,4.53
2015-10-31T02:35:23.405Z,4.57
2015-10-31T02:35:35.764Z,4.51
2015-10-31T02:35:48.127Z,4.56
2015-10-31T02:36:00.439Z,4.56
2015-10-31T02:36:12.767Z,4.56
2015-10-31T02:36:25.111Z,4.58
2015-10-31T02:36:37.439Z,4.61
2015-10-31T02:36:49.785Z,4.69
2015-10-31T02:37:02.113Z,4.54
2015-10-31T02:37:14.457Z,4.71
2015-10-31T02:37:26.801Z,4.68
2015-10-31T02:37:39.144Z,4.68
2015-10-31T02:37:51.506Z,4.65
2015-10-31T02:38:03.849Z,4.78
2015-10-31T02:38:16.178Z,4.76
2015-10-31T02:38:28.506Z,4.64
2015-10-31T02:38:40.849Z,4.83
2015-10-31T02:38:53.181Z,4.78
2015-10-31T02:39:05.509Z,4.72
2015-10-31T02:39:17.852Z,4.74
2015-10-31T02:39:30.196Z,4.83
2015-10-31T02:39:42.540Z,4.85
2015-10-31T02:39:54.902Z,4.83
2015-10-31T02:40:07.230Z,4.87
2015-10-31T02:40:19.543Z,4.92
2015-10-31T02:40:31.871Z,4.91
2015-10-31T02:40:44.187Z,4.83
2015-10-31T02:40:56.515Z,4.85
2015-10-31T02:41:08.858Z,4.9
2015-10-31T02:41:21.202Z,4.92
2015-10-31T02:41:33.562Z,4.92
2015-10-31T02:41:45.939Z,4.94
2015-10-31T02:41:58.329Z,4.92
2015-10-31T02:42:10.657Z,4.94
2015-10-31T02:42:22.985Z,4.92
2015-10-31T02:42:35.314Z,4.91
2015-10-31T02:42:47.660Z,4.95
2015-10-31T02:42:59.973Z,4.92
2015-10-31T02:43:12.301Z,4.91
2015-10-31T02:43:24.645Z,4.95
2015-10-31T02:43:36.988Z,4.94
2015-10-31T02:43:49.210Z,4.94
2015-10-31T02:44:01.570Z,4.95
2015-10-31T02:44:13.913Z,4.84
2015-10-31T02:44:26.241Z,4.95
2015-10-31T02:44:38.570Z,4.85
2015-10-31T02:44:50.900Z,4.97
2015-10-31T02:45:03.243Z,4.95
2015-10-31T02:45:15.572Z,4.92